Time;durP1;ratioP1;P1;durP2;ratioP2;P2;SDS_P1;SDS_P2;PMS_P1;PMS_P2;Temp;Humidity;BMP_temperature;BMP_pressure;BME280_temperature;BME280_humidity;BME280_pressure;Samples;Min_cycle;Max_cycle;Signal;HPM_P1;HPM_P2
2022/03/29 00:00:18;;;;;;;24.77;13.93;;;13.80;64.90;;;;;;5032805;28;20026;-76
2022/03/29 00:02:45;;;;;;;29.95;12.75;;;13.80;65.20;;;;;;5014922;28;20099;-72
2022/03/29 00:05:10;;;;;;;25.65;12.48;;;13.80;64.90;;;;;;5031610;28;20030;-76
2022/03/29 00:07:36;;;;;;;22.20;12.65;;;13.90;64.70;;;;;;5036443;28;20022;-69
2022/03/29 00:10:05;;;;;;;29.48;12.02;;;13.90;64.50;;;;;;5036218;28;20022;-76
2022/03/29 00:12:34;;;;;;;25.65;12.77;;;13.90;64.60;;;;;;5036218;28;20111;-70
2022/03/29 00:15:05;;;;;;;25.17;12.32;;;13.90;64.20;;;;;;5036016;28;20045;-77
2022/03/29 00:17:31;;;;;;;27.75;11.88;;;13.80;64.50;;;;;;5036057;28;20026;-72
2022/03/29 00:19:57;;;;;;;23.52;11.68;;;13.70;64.80;;;;;;5035994;28;20033;-76
2022/03/29 00:22:24;;;;;;;19.60;11.32;;;13.70;65.80;;;;;;5036018;28;20355;-71
2022/03/29 00:24:49;;;;;;;25.60;11.65;;;13.60;66.40;;;;;;5035944;28;20101;-76
2022/03/29 00:27:15;;;;;;;26.95;11.63;;;13.60;67.00;;;;;;5036085;28;20029;-79
2022/03/29 00:29:43;;;;;;;19.95;11.10;;;13.60;67.60;;;;;;5037586;28;20036;-74
2022/03/29 00:32:12;;;;;;;21.50;10.60;;;13.60;68.00;;;;;;5037501;28;20064;-78
2022/03/29 00:34:42;;;;;;;24.30;10.98;;;13.60;69.00;;;;;;5036788;28;20073;-76
2022/03/29 00:37:08;;;;;;;21.40;10.57;;;13.50;69.40;;;;;;5036758;28;20033;-74
2022/03/29 00:39:34;;;;;;;23.23;10.60;;;13.50;68.70;;;;;;5036721;28;20022;-72
2022/03/29 00:42:04;;;;;;;21.73;10.82;;;13.50;69.70;;;;;;5036376;28;20022;-76
2022/03/29 00:44:32;;;;;;;19.48;10.60;;;13.50;70.20;;;;;;5017688;28;20474;-79
2022/03/29 00:46:59;;;;;;;21.92;10.20;;;13.50;69.80;;;;;;5017769;28;20550;-78
2022/03/29 00:49:30;;;;;;;17.65;10.63;;;13.40;70.60;;;;;;5035349;28;20026;-77
2022/03/29 00:51:59;;;;;;;19.13;9.55;;;13.30;70.90;;;;;;5018603;28;20463;-78
2022/03/29 00:54:27;;;;;;;21.45;10.55;;;13.20;71.50;;;;;;5035122;28;20486;-80
2022/03/29 00:56:56;;;;;;;16.20;9.85;;;13.30;71.50;;;;;;5035189;28;20087;-77
2022/03/29 00:59:21;;;;;;;21.15;9.55;;;13.20;71.30;;;;;;5035082;28;20021;-78
2022/03/29 01:01:48;;;;;;;22.30;10.68;;;13.30;71.30;;;;;;5017488;28;20447;-80
2022/03/29 01:04:15;;;;;;;23.27;10.63;;;13.20;71.00;;;;;;5035668;28;20040;-75
2022/03/29 01:06:44;;;;;;;22.60;9.15;;;13.10;71.10;;;;;;5035323;28;20156;-79
2022/03/29 01:09:17;;;;;;;19.48;9.50;;;13.10;71.00;;;;;;5038131;28;20036;-72
2022/03/29 01:11:42;;;;;;;12.85;6.82;;;13.10;71.50;;;;;;5037241;28;20087;-71
2022/03/29 01:14:09;;;;;;;16.25;9.07;;;13.20;71.00;;;;;;5037074;28;20108;-74
2022/03/29 01:19:22;;;;;;;16.98;9.00;;;13.20;71.10;;;;;;5036642;28;20036;-78
2022/03/29 01:21:59;;;;;;;21.23;10.48;;;13.20;70.20;;;;;;5034739;28;20033;-77
2022/03/29 01:24:27;;;;;;;19.10;9.55;;;13.20;70.80;;;;;;5034754;28;20022;-77
2022/03/29 01:26:57;;;;;;;16.30;9.23;;;13.20;70.20;;;;;;5034737;28;20029;-77
2022/03/29 01:29:24;;;;;;;14.35;8.80;;;13.30;70.00;;;;;;5034735;28;20021;-76
2022/03/29 01:31:51;;;;;;;15.88;9.75;;;13.30;70.30;;;;;;5034563;28;20113;-76
2022/03/29 01:34:18;;;;;;;16.85;8.95;;;13.30;69.20;;;;;;5034540;28;20104;-78
2022/03/29 01:36:44;;;;;;;15.48;9.27;;;13.40;69.40;;;;;;5034804;28;20021;-80
2022/03/29 01:39:10;;;;;;;16.55;9.25;;;13.40;69.10;;;;;;5034719;28;20084;-77
2022/03/29 01:41:38;;;;;;;18.55;8.70;;;13.40;69.20;;;;;;5034358;28;20030;-78
2022/03/29 01:44:31;;;;;;;17.98;9.38;;;13.40;69.50;;;;;;5034371;28;20044;-74
2022/03/29 01:46:57;;;;;;;18.67;9.20;;;13.30;69.50;;;;;;5034195;28;20080;-79
2022/03/29 01:49:34;;;;;;;20.83;9.23;;;13.30;69.30;;;;;;5034487;28;20053;-79
2022/03/29 01:52:01;;;;;;;17.27;9.75;;;13.20;69.40;;;;;;5034670;28;20075;-79
2022/03/29 01:54:27;;;;;;;25.65;10.55;;;13.10;71.00;;;;;;5034585;28;20031;-79
2022/03/29 01:56:57;;;;;;;16.42;10.25;;;13.00;70.50;;;;;;5034828;28;20033;-73
2022/03/29 01:59:23;;;;;;;21.98;10.70;;;12.90;70.40;;;;;;5016879;28;20053;-66
2022/03/29 02:01:50;;;;;;;19.73;10.50;;;12.90;70.80;;;;;;5034385;28;20524;-65
2022/03/29 02:04:21;;;;;;;18.90;10.38;;;12.90;70.80;;;;;;5016445;28;20065;-70
2022/03/29 02:06:46;;;;;;;18.40;10.63;;;12.80;71.00;;;;;;5034102;28;20014;-70
2022/03/29 02:09:12;;;;;;;18.63;9.73;;;12.90;70.90;;;;;;5033914;28;20087;-71
2022/03/29 02:11:41;;;;;;;14.48;9.40;;;12.80;70.80;;;;;;5033876;28;20022;-73
2022/03/29 02:14:08;;;;;;;20.88;9.70;;;12.80;71.00;;;;;;5016094;28;20486;-68
2022/03/29 02:16:33;;;;;;;17.85;9.88;;;12.80;70.70;;;;;;5033917;28;20022;-67
2022/03/29 02:18:59;;;;;;;23.13;10.07;;;12.80;70.60;;;;;;5033841;28;20028;-69
2022/03/29 02:21:25;;;;;;;16.88;9.32;;;12.80;70.60;;;;;;5033835;28;20029;-75
2022/03/29 02:23:52;;;;;;;16.42;9.00;;;12.90;69.90;;;;;;5032868;28;20390;-75
2022/03/29 02:26:19;;;;;;;15.65;9.52;;;12.90;69.90;;;;;;5033437;28;20026;-74
2022/03/29 02:28:45;;;;;;;24.00;10.07;;;12.90;69.30;;;;;;5033545;28;20033;-67
2022/03/29 02:31:30;;;;;;;18.17;9.02;;;12.80;68.80;;;;;;5033275;28;20033;-69
2022/03/29 02:33:56;;;;;;;30.67;10.20;;;12.80;68.60;;;;;;5015521;28;20164;-72
2022/03/29 02:36:22;;;;;;;15.02;9.00;;;12.80;68.00;;;;;;5033270;28;20026;-66
2022/03/29 02:38:48;;;;;;;19.55;9.38;;;12.80;68.10;;;;;;5015699;28;20190;-70
2022/03/29 02:41:13;;;;;;;17.80;8.05;;;12.80;68.20;;;;;;5015460;28;20419;-68
2022/03/29 02:43:39;;;;;;;23.58;9.93;;;12.70;67.70;;;;;;5033071;28;20033;-75
2022/03/29 02:46:07;;;;;;;19.15;9.73;;;12.60;67.80;;;;;;5033215;28;20036;-71
2022/03/29 02:48:33;;;;;;;18.08;9.25;;;12.50;68.30;;;;;;5032485;28;20474;-70
2022/03/29 02:50:59;;;;;;;18.13;8.88;;;12.50;68.30;;;;;;5033107;28;20045;-71
2022/03/29 02:53:28;;;;;;;21.65;10.25;;;12.40;68.80;;;;;;5032880;28;20046;-67
2022/03/29 02:55:55;;;;;;;18.55;9.85;;;12.40;68.80;;;;;;5033024;28;20030;-70
2022/03/29 02:58:22;;;;;;;21.50;10.38;;;12.40;69.20;;;;;;5033252;28;20026;-74
2022/03/29 03:00:48;;;;;;;17.83;10.02;;;12.30;69.50;;;;;;5033009;28;20029;-72
2022/03/29 03:03:15;;;;;;;20.77;8.88;;;12.30;70.00;;;;;;5015548;28;20017;-69
2022/03/29 03:05:42;;;;;;;19.90;10.10;;;12.30;70.00;;;;;;5032819;28;20513;-69
2022/03/29 03:08:09;;;;;;;14.60;9.13;;;12.20;69.60;;;;;;5033068;28;20079;-72
2022/03/29 03:10:35;;;;;;;20.15;10.52;;;12.20;69.50;;;;;;5032919;28;20056;-72
2022/03/29 03:13:01;;;;;;;20.67;10.73;;;12.10;69.60;;;;;;5032693;28;20057;-72
2022/03/29 03:15:27;;;;;;;18.98;11.50;;;12.00;70.10;;;;;;5032897;28;20075;-72
2022/03/29 03:17:54;;;;;;;19.77;10.02;;;12.00;70.80;;;;;;5032933;28;20021;-68
2022/03/29 03:20:21;;;;;;;16.10;9.98;;;11.90;71.00;;;;;;5032962;28;20074;-69
2022/03/29 03:22:48;;;;;;;19.55;9.98;;;11.90;71.50;;;;;;5032649;28;20075;-70
2022/03/29 03:25:33;;;;;;;18.30;9.45;;;11.80;70.90;;;;;;5032595;28;20132;-71
2022/03/29 03:28:19;;;;;;;20.60;9.38;;;11.80;71.10;;;;;;5030469;28;20038;-70
2022/03/29 03:30:44;;;;;;;20.10;8.93;;;11.70;71.00;;;;;;5032609;28;20040;-76
2022/03/29 03:33:13;;;;;;;18.98;9.23;;;11.70;71.00;;;;;;5032408;28;20451;-71
2022/03/29 03:35:40;;;;;;;23.08;9.50;;;11.60;71.70;;;;;;5032565;28;20197;-77
2022/03/29 03:38:07;;;;;;;19.95;9.73;;;11.70;71.40;;;;;;5032502;28;20112;-76
2022/03/29 03:40:33;;;;;;;20.00;9.63;;;11.80;71.70;;;;;;5034581;28;20033;-75
2022/03/29 03:43:00;;;;;;;24.17;9.93;;;11.90;71.30;;;;;;5039547;28;20075;-78
2022/03/29 03:45:26;;;;;;;24.00;10.20;;;12.00;71.20;;;;;;5021654;28;20103;-74
2022/03/29 03:48:02;;;;;;;15.18;9.55;;;12.00;71.20;;;;;;5038753;28;20486;-70
2022/03/29 03:50:28;;;;;;;21.00;9.65;;;12.00;71.00;;;;;;5039050;28;20033;-71
2022/03/29 03:52:55;;;;;;;20.17;9.18;;;12.00;71.00;;;;;;5021394;28;20163;-73
2022/03/29 03:55:21;;;;;;;20.08;9.77;;;12.00;71.50;;;;;;5038608;28;20057;-77
2022/03/29 03:57:51;;;;;;;15.90;9.05;;;11.90;71.40;;;;;;5038738;28;20471;-74
2022/03/29 04:00:17;;;;;;;17.88;9.30;;;11.90;71.60;;;;;;5038941;28;20064;-74
2022/03/29 04:02:43;;;;;;;18.60;9.27;;;11.90;72.20;;;;;;5039126;28;20474;-71
2022/03/29 04:05:13;;;;;;;19.80;9.32;;;11.90;72.40;;;;;;5040500;28;20112;-80
2022/03/29 04:07:55;;;;;;;14.75;9.55;;;11.80;72.10;;;;;;5037570;28;20040;-69
2022/03/29 04:10:20;;;;;;;18.35;9.73;;;11.80;72.70;;;;;;5021752;28;20029;-69
2022/03/29 04:12:46;;;;;;;18.23;9.55;;;11.90;72.90;;;;;;5040772;28;20028;-68
2022/03/29 04:15:12;;;;;;;23.38;11.30;;;11.90;72.90;;;;;;5040255;28;20045;-68
2022/03/29 04:17:38;;;;;;;15.07;9.25;;;12.00;72.80;;;;;;5038842;28;20100;-68
2022/03/29 04:20:07;;;;;;;16.88;9.70;;;12.00;73.00;;;;;;5039220;28;20025;-70
2022/03/29 04:22:33;;;;;;;17.55;9.93;;;12.00;72.30;;;;;;5038760;28;20018;-68
2022/03/29 04:24:58;;;;;;;15.90;9.15;;;12.00;72.60;;;;;;5038479;28;20056;-70
2022/03/29 04:27:24;;;;;;;21.65;10.07;;;12.00;72.50;;;;;;5038584;28;20017;-69
2022/03/29 04:29:50;;;;;;;18.98;9.80;;;12.00;72.60;;;;;;5038716;28;20502;-65
2022/03/29 04:32:16;;;;;;;18.95;10.18;;;12.10;72.60;;;;;;5038754;28;20539;-65
2022/03/29 04:34:44;;;;;;;17.77;10.00;;;12.00;72.10;;;;;;5020870;28;20574;-66
2022/03/29 04:37:10;;;;;;;24.90;10.10;;;12.00;72.70;;;;;;5038886;28;20045;-68
2022/03/29 04:39:38;;;;;;;23.65;10.55;;;12.10;72.70;;;;;;5038690;28;20025;-68
2022/03/29 04:42:05;;;;;;;22.83;11.85;;;12.20;72.30;;;;;;5038605;28;20041;-67
2022/03/29 04:44:31;;;;;;;19.10;11.50;;;12.20;72.00;;;;;;5038486;28;20076;-67
2022/03/29 04:46:57;;;;;;;23.17;10.15;;;12.30;72.10;;;;;;5038313;28;20168;-67
2022/03/29 04:49:22;;;;;;;23.17;10.55;;;12.20;72.30;;;;;;5038363;28;20112;-69
2022/03/29 04:51:48;;;;;;;17.00;9.45;;;12.20;71.70;;;;;;5036970;28;20485;-68
2022/03/29 04:54:14;;;;;;;20.15;9.73;;;12.20;71.80;;;;;;5034883;28;20040;-71
2022/03/29 04:56:39;;;;;;;19.35;9.25;;;12.20;71.70;;;;;;5017364;28;20120;-66
2022/03/29 04:59:05;;;;;;;15.68;9.13;;;12.20;72.00;;;;;;5035413;28;20025;-67
2022/03/29 05:01:32;;;;;;;21.88;9.82;;;12.10;71.80;;;;;;5035300;28;20021;-68
2022/03/29 05:04:04;;;;;;;21.83;9.80;;;12.10;72.10;;;;;;5035280;28;20025;-70
2022/03/29 05:06:31;;;;;;;17.25;10.07;;;12.10;71.90;;;;;;5035316;28;20030;-74
2022/03/29 05:08:57;;;;;;;25.30;9.90;;;12.10;71.60;;;;;;5035044;28;20028;-79
2022/03/29 05:11:22;;;;;;;22.38;9.18;;;12.20;72.00;;;;;;5017352;28;20056;-81
2022/03/29 05:13:50;;;;;;;18.88;9.73;;;12.20;71.60;;;;;;5035107;28;20029;-75
2022/03/29 05:16:15;;;;;;;22.33;9.95;;;12.20;71.90;;;;;;5017736;28;20090;-73
2022/03/29 05:18:43;;;;;;;19.48;9.50;;;12.30;71.70;;;;;;5039348;28;20018;-77
2022/03/29 05:21:10;;;;;;;18.23;9.07;;;12.40;71.60;;;;;;5036566;28;20452;-76
2022/03/29 05:23:37;;;;;;;19.02;9.85;;;12.40;71.10;;;;;;5034543;28;20103;-82
2022/03/29 05:26:03;;;;;;;20.85;9.40;;;12.40;70.90;;;;;;5034560;28;20025;-77
2022/03/29 05:28:29;;;;;;;23.75;9.70;;;12.40;70.70;;;;;;5017155;28;20486;-73
2022/03/29 05:30:55;;;;;;;21.02;9.60;;;12.40;70.80;;;;;;5034917;28;20025;-78
2022/03/29 05:33:21;;;;;;;20.67;9.30;;;12.40;70.90;;;;;;5035560;28;20025;-78
2022/03/29 05:35:47;;;;;;;21.35;9.52;;;12.40;70.90;;;;;;5036752;28;20044;-76
2022/03/29 05:38:13;;;;;;;16.88;8.82;;;12.40;70.70;;;;;;5039599;28;20385;-75
2022/03/29 05:40:39;;;;;;;21.95;10.05;;;12.40;70.70;;;;;;5021850;28;20029;-71
2022/03/29 05:43:11;;;;;;;26.23;10.25;;;12.40;70.70;;;;;;5034503;28;20029;-72
2022/03/29 05:45:40;;;;;;;18.65;8.57;;;12.30;70.30;;;;;;5034769;28;20084;-76
2022/03/29 05:50:52;;;;;;;21.80;10.52;;;12.60;70.30;;;;;;5038274;28;20035;-74
2022/03/29 05:53:18;;;;;;;22.35;9.88;;;12.70;69.60;;;;;;5043772;28;20389;-74
2022/03/29 05:55:45;;;;;;;17.50;10.20;;;12.70;69.10;;;;;;5044239;28;20038;-74
2022/03/29 05:58:11;;;;;;;25.20;10.10;;;12.80;69.10;;;;;;5040606;28;20090;-73
2022/03/29 06:00:37;;;;;;;19.85;9.60;;;12.80;68.70;;;;;;5036366;28;20025;-76
2022/03/29 06:03:03;;;;;;;25.55;10.95;;;12.80;68.30;;;;;;5033989;28;20068;-74
2022/03/29 06:05:29;;;;;;;26.90;11.02;;;12.80;68.20;;;;;;5038489;28;20539;-77
2022/03/29 06:07:55;;;;;;;23.70;10.43;;;12.70;67.90;;;;;;5039466;28;20022;-75
2022/03/29 06:10:21;;;;;;;21.73;10.48;;;12.80;67.70;;;;;;5034436;28;20021;-78
2022/03/29 06:12:46;;;;;;;20.33;9.93;;;12.70;67.40;;;;;;5034318;28;20052;-77
2022/03/29 06:15:13;;;;;;;16.85;10.52;;;12.80;67.30;;;;;;5034008;28;20184;-75
2022/03/29 06:17:39;;;;;;;22.10;10.20;;;12.80;67.30;;;;;;5034588;28;20074;-78
2022/03/29 06:22:51;;;;;;;23.63;9.55;;;13.10;66.90;;;;;;5046383;28;20424;-70
2022/03/29 06:25:17;;;;;;;23.85;10.48;;;13.20;65.60;;;;;;5036103;28;20124;-71
2022/03/29 06:27:43;;;;;;;22.77;9.82;;;13.30;64.90;;;;;;5045669;28;20025;-70
2022/03/29 06:30:10;;;;;;;22.88;9.63;;;13.50;64.70;;;;;;5033799;28;20037;-76
2022/03/29 06:32:46;;;;;;;18.67;9.70;;;13.60;64.40;;;;;;5016244;28;20083;-69
2022/03/29 06:35:12;;;;;;;22.40;11.02;;;13.90;63.50;;;;;;5015895;28;20482;-75
2022/03/29 06:37:41;;;;;;;19.85;10.02;;;14.10;63.00;;;;;;5033284;28;20164;-82
2022/03/29 06:40:09;;;;;;;22.20;10.23;;;14.20;62.50;;;;;;5016412;28;20025;-71
2022/03/29 06:42:37;;;;;;;17.15;9.55;;;14.30;62.20;;;;;;5035865;28;20021;-73
2022/03/29 06:45:03;;;;;;;21.77;10.00;;;14.40;61.70;;;;;;5052168;28;20029;-79
2022/03/29 06:47:29;;;;;;;24.48;9.38;;;14.40;61.20;;;;;;5044820;28;20037;-73
2022/03/29 06:49:55;;;;;;;24.92;9.90;;;14.50;61.00;;;;;;5051446;28;20371;-72
2022/03/29 06:52:26;;;;;;;23.65;10.30;;;14.70;60.90;;;;;;5053425;28;20093;-77
2022/03/29 06:54:52;;;;;;;20.50;9.52;;;14.80;60.50;;;;;;5053608;28;20432;-78
2022/03/29 06:57:19;;;;;;;28.00;11.00;;;14.90;60.00;;;;;;5039267;28;20094;-79
2022/03/29 06:59:45;;;;;;;33.88;11.18;;;14.90;58.70;;;;;;5036600;28;20025;-72
2022/03/29 07:02:11;;;;;;;19.73;10.85;;;15.00;59.90;;;;;;5016802;28;20382;-75
2022/03/29 07:04:37;;;;;;;23.42;10.77;;;15.10;59.80;;;;;;5033328;28;20029;-73
2022/03/29 07:07:04;;;;;;;24.33;10.85;;;15.30;59.40;;;;;;5033126;28;20458;-67
2022/03/29 07:12:18;;;;;;;31.55;13.80;;;15.50;58.30;;;;;;5032902;28;20045;-77
2022/03/29 07:14:45;;;;;;;27.83;11.88;;;15.60;58.60;;;;;;5026765;28;20448;-69
2022/03/29 07:17:13;;;;;;;23.60;11.82;;;15.70;58.30;;;;;;5044974;28;20055;-76
2022/03/29 07:19:40;;;;;;;24.80;11.48;;;15.70;57.50;;;;;;5037631;28;20025;-71
2022/03/29 07:22:05;;;;;;;25.92;11.85;;;15.70;57.10;;;;;;5032513;28;20037;-72
2022/03/29 07:24:31;;;;;;;21.15;10.75;;;15.70;57.00;;;;;;5032427;28;20026;-74
2022/03/29 07:26:59;;;;;;;24.60;11.18;;;15.70;56.80;;;;;;5032765;28;20103;-76
2022/03/29 07:29:26;;;;;;;22.65;10.85;;;15.70;56.70;;;;;;5032767;28;20026;-80
2022/03/29 07:31:52;;;;;;;21.33;11.50;;;15.70;56.70;;;;;;5032966;28;20025;-75
2022/03/29 07:34:18;;;;;;;25.23;11.40;;;15.90;56.60;;;;;;5032397;28;20033;-75
2022/03/29 07:36:44;;;;;;;27.85;10.63;;;16.00;55.90;;;;;;5015245;28;20029;-71
2022/03/29 07:39:10;;;;;;;30.67;11.48;;;16.20;55.80;;;;;;5015083;28;20187;-72
2022/03/29 07:41:36;;;;;;;23.77;10.88;;;16.30;55.50;;;;;;5032880;28;20372;-74
2022/03/29 07:44:02;;;;;;;23.77;10.38;;;16.30;55.20;;;;;;5015066;28;20029;-76
2022/03/29 07:46:28;;;;;;;21.27;10.90;;;16.40;55.00;;;;;;5032675;28;20431;-79
2022/03/29 07:48:54;;;;;;;21.67;10.95;;;16.40;55.10;;;;;;5032822;28;20374;-70
2022/03/29 07:51:20;;;;;;;30.38;12.30;;;16.30;55.00;;;;;;5032869;28;20021;-72
2022/03/29 07:53:48;;;;;;;24.20;11.02;;;16.40;55.10;;;;;;5032668;28;20482;-75
2022/03/29 07:56:15;;;;;;;22.95;10.95;;;16.50;55.30;;;;;;5032812;28;20111;-78
2022/03/29 07:58:42;;;;;;;25.70;11.15;;;16.60;55.10;;;;;;5015049;28;20073;-73
2022/03/29 08:01:08;;;;;;;23.98;10.25;;;16.70;54.90;;;;;;5032811;28;20025;-75
2022/03/29 08:03:34;;;;;;;20.63;11.20;;;16.70;53.90;;;;;;5033950;28;20103;-77
2022/03/29 08:06:05;;;;;;;26.08;11.27;;;16.70;54.00;;;;;;5033332;28;20024;-78
2022/03/29 08:08:32;;;;;;;22.45;11.13;;;16.70;54.00;;;;;;5032948;28;20088;-71
2022/03/29 08:10:58;;;;;;;23.42;10.93;;;16.80;55.10;;;;;;5032690;28;20467;-69
2022/03/29 08:13:24;;;;;;;25.85;10.93;;;16.80;55.00;;;;;;5032100;28;20059;-77
2022/03/29 08:15:53;;;;;;;22.77;11.57;;;16.80;53.70;;;;;;5032311;28;20033;-68
2022/03/29 08:18:19;;;;;;;19.80;11.38;;;16.90;54.50;;;;;;5032478;28;20041;-69
2022/03/29 08:20:45;;;;;;;22.70;11.05;;;16.80;54.80;;;;;;5032362;28;20463;-67
2022/03/29 08:23:11;;;;;;;25.10;11.25;;;16.80;54.30;;;;;;5014631;28;20029;-71
2022/03/29 08:25:39;;;;;;;24.45;11.20;;;16.90;54.50;;;;;;5032435;28;20056;-68
2022/03/29 08:28:09;;;;;;;25.48;11.60;;;16.90;54.60;;;;;;5036369;28;20032;-71
2022/03/29 08:30:36;;;;;;;21.77;10.90;;;16.90;53.80;;;;;;5037580;28;20029;-70
2022/03/29 08:33:02;;;;;;;33.65;11.45;;;17.00;53.90;;;;;;5036414;28;20067;-72
2022/03/29 08:35:29;;;;;;;24.45;11.02;;;17.00;54.20;;;;;;5036180;28;20033;-71
2022/03/29 08:37:55;;;;;;;20.85;11.05;;;17.00;54.10;;;;;;5036385;28;20093;-73
2022/03/29 08:40:26;;;;;;;19.92;10.93;;;17.10;53.80;;;;;;5035970;28;20065;-67
2022/03/29 08:42:58;;;;;;;24.77;10.98;;;17.10;52.50;;;;;;5036708;28;20037;-75
2022/03/29 08:45:32;;;;;;;24.95;11.10;;;17.20;53.90;;;;;;5019474;28;20503;-70
2022/03/29 08:48:00;;;;;;;19.98;10.57;;;17.20;51.90;;;;;;5036386;28;20073;-74
2022/03/29 08:50:29;;;;;;;29.55;11.75;;;17.30;53.50;;;;;;5035655;28;20470;-75
2022/03/29 08:53:01;;;;;;;19.67;10.90;;;17.30;51.70;;;;;;5017740;28;20025;-69
2022/03/29 08:55:27;;;;;;;23.98;10.88;;;17.50;51.60;;;;;;5035324;28;20446;-79
2022/03/29 08:57:58;;;;;;;22.45;11.45;;;17.40;52.80;;;;;;5035350;28;20025;-73
2022/03/29 09:00:24;;;;;;;26.63;11.95;;;17.50;51.80;;;;;;5018043;28;20034;-73
2022/03/29 09:02:51;;;;;;;28.55;10.45;;;17.50;52.50;;;;;;5017961;28;20064;-71
2022/03/29 09:05:21;;;;;;;23.83;11.13;;;17.50;52.30;;;;;;5018029;28;20049;-70
2022/03/29 09:07:56;;;;;;;23.73;10.20;;;17.60;52.60;;;;;;5035100;28;20100;-68
2022/03/29 09:11:01;;;;;;;22.23;11.15;;;17.60;50.70;;;;;;5034979;28;20561;-70
2022/03/29 09:13:29;;;;;;;28.13;10.80;;;17.80;50.80;;;;;;5035575;28;20033;-70
2022/03/29 09:16:00;;;;;;;22.25;10.63;;;17.90;52.10;;;;;;5035364;28;20063;-74
2022/03/29 09:18:27;;;;;;;24.02;10.52;;;18.00;51.90;;;;;;5035505;28;20029;-69
2022/03/29 09:21:13;;;;;;;19.92;10.15;;;18.10;52.00;;;;;;5035302;28;20091;-67
2022/03/29 09:23:41;;;;;;;21.20;9.85;;;18.20;51.40;;;;;;5036192;28;20014;-74
2022/03/29 09:26:07;;;;;;;23.63;9.90;;;18.20;51.40;;;;;;5038404;28;20029;-71
2022/03/29 09:28:37;;;;;;;20.55;9.95;;;18.40;51.20;;;;;;5037783;28;20424;-74
2022/03/29 09:31:25;;;;;;;20.83;10.15;;;18.50;51.00;;;;;;5035749;28;20030;-74
2022/03/29 09:33:51;;;;;;;22.95;9.60;;;18.50;50.90;;;;;;5035050;28;20451;-75
2022/03/29 09:36:20;;;;;;;21.73;10.07;;;18.50;50.50;;;;;;5034721;28;20486;-66
2022/03/29 09:38:52;;;;;;;19.13;8.25;;;18.60;50.10;;;;;;5015945;28;20443;-69
2022/03/29 09:41:28;;;;;;;22.00;9.75;;;18.80;50.40;;;;;;5034489;28;20029;-72
2022/03/29 09:44:09;;;;;;;22.27;9.85;;;18.90;48.80;;;;;;5017585;28;20095;-79
2022/03/29 09:47:02;;;;;;;22.55;9.85;;;18.90;50.00;;;;;;5036164;28;20025;-72
2022/03/29 09:49:28;;;;;;;22.88;9.85;;;19.00;48.30;;;;;;5040429;28;20030;-74
2022/03/29 09:52:15;;;;;;;28.65;9.43;;;19.00;49.80;;;;;;5036110;28;20027;-82
2022/03/29 09:54:42;;;;;;;23.77;9.32;;;19.10;49.40;;;;;;5034378;28;20072;-69
2022/03/29 09:57:09;;;;;;;19.33;8.20;;;19.10;49.30;;;;;;5016730;28;20417;-68
2022/03/29 09:59:48;;;;;;;19.52;9.10;;;19.10;49.10;;;;;;5034414;28;20080;-68
2022/03/29 10:02:16;;;;;;;22.25;8.18;;;19.20;49.50;;;;;;5034328;28;20064;-74
2022/03/29 10:04:43;;;;;;;20.67;8.52;;;19.30;49.20;;;;;;5017270;28;20029;-68
2022/03/29 10:07:11;;;;;;;22.48;8.10;;;19.40;48.80;;;;;;5034304;28;20034;-69
2022/03/29 10:09:42;;;;;;;20.25;8.30;;;19.50;48.70;;;;;;5035366;28;20075;-77
2022/03/29 10:12:09;;;;;;;14.48;6.55;;;19.60;48.30;;;;;;5034814;28;20044;-76
2022/03/29 10:14:42;;;;;;;18.88;7.35;;;19.80;48.00;;;;;;5034006;28;20034;-67
2022/03/29 10:17:08;;;;;;;23.80;6.53;;;19.80;47.20;;;;;;5034164;28;20113;-67
2022/03/29 10:19:36;;;;;;;21.45;6.40;;;19.90;47.20;;;;;;5034074;28;20078;-67
2022/03/29 10:22:03;;;;;;;20.17;6.85;;;20.00;46.90;;;;;;5033847;28;20026;-68
2022/03/29 10:24:29;;;;;;;20.90;6.70;;;20.10;46.50;;;;;;5016490;28;20063;-68
2022/03/29 10:26:59;;;;;;;18.25;6.32;;;20.20;46.70;;;;;;5016458;28;20067;-70
2022/03/29 10:32:51;;;;;;;15.25;6.25;;;20.50;45.90;;;;;;5033943;28;20044;-72
2022/03/29 10:35:19;;;;;;;14.57;6.68;;;20.50;46.50;;;;;;5033525;28;20112;-72
2022/03/29 10:37:56;;;;;;;13.93;6.55;;;20.50;46.30;;;;;;5033691;28;20079;-69
2022/03/29 10:40:39;;;;;;;14.40;6.47;;;20.50;45.40;;;;;;5016267;28;20079;-70
2022/03/29 10:43:50;;;;;;;18.02;6.43;;;20.40;46.30;;;;;;5033431;28;20030;-69
2022/03/29 10:46:24;;;;;;;25.27;6.93;;;20.30;44.80;;;;;;5013858;28;20038;-68
2022/03/29 10:49:38;;;;;;;19.30;6.10;;;20.20;46.40;;;;;;5033383;28;20163;-68
2022/03/29 10:52:05;;;;;;;21.65;6.40;;;20.20;45.50;;;;;;5006354;28;20474;-68
2022/03/29 10:54:41;;;;;;;21.48;6.68;;;20.20;45.20;;;;;;5033042;28;20021;-69
2022/03/29 10:57:28;;;;;;;24.98;6.75;;;20.20;45.50;;;;;;5033430;28;20037;-69
2022/03/29 11:00:17;;;;;;;19.67;6.00;;;20.20;46.20;;;;;;5034878;28;20025;-70
2022/03/29 11:03:21;;;;;;;16.08;6.40;;;20.30;45.90;;;;;;5035084;28;20530;-68
2022/03/29 11:06:10;;;;;;;13.75;5.18;;;20.30;45.70;;;;;;5033199;28;20497;-67
2022/03/29 11:08:40;;;;;;;15.95;6.25;;;20.30;45.70;;;;;;5032723;28;20502;-68
2022/03/29 11:11:07;;;;;;;14.65;5.95;;;20.20;46.00;;;;;;5032903;28;20036;-70
2022/03/29 11:13:38;;;;;;;22.33;6.68;;;20.20;45.90;;;;;;5032802;28;20490;-66
2022/03/29 11:16:30;;;;;;;15.68;5.55;;;20.20;45.50;;;;;;5032633;28;20163;-69
2022/03/29 11:18:58;;;;;;;17.13;5.80;;;20.20;44.40;;;;;;5032781;28;20041;-67
2022/03/29 11:21:39;;;;;;;17.05;6.32;;;20.20;45.20;;;;;;5016021;28;20072;-67
2022/03/29 11:24:07;;;;;;;17.80;6.40;;;20.40;45.20;;;;;;5032892;28;20022;-68
2022/03/29 11:26:35;;;;;;;15.18;6.63;;;20.60;45.10;;;;;;5033517;28;20033;-67
2022/03/29 11:29:03;;;;;;;16.83;6.28;;;20.70;44.90;;;;;;5032971;28;20056;-73
2022/03/29 11:31:39;;;;;;;17.33;5.82;;;20.90;44.50;;;;;;5032991;28;20029;-67
2022/03/29 11:34:11;;;;;;;15.18;6.63;;;20.90;43.60;;;;;;5032684;28;20017;-69
2022/03/29 11:36:47;;;;;;;13.10;6.18;;;21.00;43.50;;;;;;5016264;28;20064;-67
2022/03/29 11:39:27;;;;;;;17.33;7.97;;;21.00;43.30;;;;;;5032976;28;20022;-68
2022/03/29 11:41:54;;;;;;;15.75;6.63;;;20.70;43.20;;;;;;5033159;28;20033;-74
2022/03/29 11:44:22;;;;;;;18.92;6.85;;;20.80;43.60;;;;;;5033006;28;20423;-78
2022/03/29 11:46:54;;;;;;;15.30;6.00;;;20.90;43.10;;;;;;5015007;28;20041;-75
2022/03/29 11:49:26;;;;;;;19.65;6.13;;;21.00;43.00;;;;;;5033065;28;20022;-73
2022/03/29 11:52:21;;;;;;;12.98;6.13;;;21.00;43.70;;;;;;4999084;28;20394;-75
2022/03/29 11:54:53;;;;;;;10.23;5.65;;;21.10;43.10;;;;;;5010775;28;20099;-76
2022/03/29 11:57:33;;;;;;;14.23;6.40;;;21.30;43.00;;;;;;5015714;28;20029;-77
2022/03/29 11:59:59;;;;;;;12.13;6.00;;;21.40;42.70;;;;;;5015745;28;20033;-72
2022/03/29 12:02:26;;;;;;;15.45;6.60;;;21.40;42.40;;;;;;5034939;28;20037;-76
2022/03/29 12:04:52;;;;;;;11.27;6.25;;;21.40;42.00;;;;;;5019405;28;20025;-80
2022/03/29 12:07:44;;;;;;;16.38;6.65;;;21.40;42.10;;;;;;5037052;28;20026;-77
2022/03/29 12:10:11;;;;;;;16.15;6.30;;;21.40;42.00;;;;;;5019500;28;20045;-76
2022/03/29 12:12:37;;;;;;;22.55;6.45;;;21.30;41.80;;;;;;5036884;28;20030;-76
2022/03/29 12:15:07;;;;;;;16.38;6.80;;;21.40;42.40;;;;;;5036794;28;20064;-77
2022/03/29 12:17:35;;;;;;;19.50;6.70;;;21.50;42.00;;;;;;5036845;28;20044;-72
2022/03/29 12:20:05;;;;;;;17.17;6.35;;;21.60;42.40;;;;;;5036110;28;20068;-76
2022/03/29 12:22:30;;;;;;;13.30;6.25;;;21.70;42.40;;;;;;5019389;28;20087;-71
2022/03/29 12:24:57;;;;;;;17.45;6.50;;;21.80;42.40;;;;;;5036937;28;20038;-78
2022/03/29 12:27:25;;;;;;;19.20;6.00;;;21.80;43.20;;;;;;5037061;28;20540;-72
2022/03/29 12:29:57;;;;;;;16.40;6.10;;;21.90;42.80;;;;;;5036342;28;20409;-69
2022/03/29 12:32:23;;;;;;;14.15;5.40;;;21.90;42.80;;;;;;5017826;28;20045;-69
2022/03/29 12:34:56;;;;;;;15.60;5.82;;;22.00;43.00;;;;;;5036543;28;20059;-78
2022/03/29 12:37:23;;;;;;;15.90;5.68;;;22.00;42.70;;;;;;5037427;28;20029;-75
2022/03/29 12:40:00;;;;;;;12.30;5.35;;;22.10;42.60;;;;;;5046651;28;20044;-77
2022/03/29 12:42:30;;;;;;;14.93;5.93;;;22.10;42.60;;;;;;5041657;28;20426;-80
2022/03/29 12:44:59;;;;;;;13.13;5.25;;;22.10;42.70;;;;;;5036135;28;20030;-79
2022/03/29 12:47:26;;;;;;;12.75;5.00;;;22.10;42.60;;;;;;5035576;28;20513;-70
2022/03/29 12:49:52;;;;;;;13.65;4.90;;;22.10;42.50;;;;;;5036133;28;20026;-66
2022/03/29 12:52:19;;;;;;;15.02;5.30;;;22.10;42.60;;;;;;5035914;28;20052;-79
2022/03/29 12:54:56;;;;;;;19.83;5.70;;;22.20;42.60;;;;;;5035593;28;20038;-73
2022/03/29 12:57:34;;;;;;;15.27;5.50;;;22.30;42.80;;;;;;5035922;28;20112;-78